createdAt,value
2022-10-19T00:04:47.286Z,14.2
2022-10-19T00:09:47.208Z,14.2
2022-10-19T00:14:47.203Z,14.2
2022-10-19T00:19:47.173Z,14
2022-10-19T00:24:47.135Z,14
2022-10-19T00:29:47.135Z,13.9
2022-10-19T00:34:47.104Z,13.8
2022-10-19T00:39:47.091Z,13.7
2022-10-19T00:44:47.054Z,13.6
2022-10-19T00:49:47.041Z,13.6
2022-10-19T00:54:47.020Z,13.6
2022-10-19T00:59:46.998Z,13.6
2022-10-19T01:04:46.975Z,13.5
2022-10-19T01:09:46.950Z,13.5
2022-10-19T01:14:46.934Z,13.5
2022-10-19T01:19:46.913Z,13.4
2022-10-19T01:24:46.912Z,13.4
2022-10-19T01:29:46.871Z,13.4
2022-10-19T01:34:46.850Z,13.4
2022-10-19T01:39:46.830Z,13.5
2022-10-19T01:44:46.807Z,13.4
2022-10-19T01:49:46.789Z,13.4
2022-10-19T01:54:46.773Z,13.5
2022-10-19T01:59:46.764Z,13.5
2022-10-19T02:04:46.727Z,13.4
2022-10-19T02:09:46.712Z,13.5
2022-10-19T02:14:46.692Z,13.5
2022-10-19T02:19:46.686Z,13.5
2022-10-19T02:24:46.645Z,13.5
2022-10-19T02:29:46.629Z,13.4
2022-10-19T02:34:46.605Z,13.4
2022-10-19T02:39:46.586Z,13.3
2022-10-19T02:44:46.567Z,13.4
2022-10-19T02:49:46.547Z,13.4
2022-10-19T02:54:46.526Z,13.4
2022-10-19T02:59:46.525Z,13.3
2022-10-19T03:04:46.485Z,13.3
2022-10-19T03:09:46.466Z,13.2
2022-10-19T03:14:46.439Z,13.2
2022-10-19T03:19:46.473Z,13.3
2022-10-19T03:24:46.402Z,13.3
2022-10-19T03:29:46.381Z,13.2
2022-10-19T03:34:46.387Z,13.2
2022-10-19T03:39:46.348Z,13.2
2022-10-19T03:44:46.327Z,13.2
2022-10-19T03:49:46.296Z,13.2
2022-10-19T03:54:46.295Z,13.2
2022-10-19T03:59:46.262Z,13.2
2022-10-19T04:04:46.280Z,13.2
2022-10-19T04:09:46.218Z,13.2
2022-10-19T04:14:46.201Z,13.3
2022-10-19T04:19:46.181Z,13.3
2022-10-19T04:24:46.180Z,13.3
2022-10-19T04:29:46.137Z,13.3
2022-10-19T04:34:46.113Z,13.2
2022-10-19T04:39:46.094Z,13.1
2022-10-19T04:44:46.110Z,13
2022-10-19T04:49:46.052Z,13
2022-10-19T04:54:46.062Z,13.1
2022-10-19T04:59:46.012Z,13.1
2022-10-19T05:04:45.998Z,13.2
2022-10-19T05:09:45.975Z,13.3
2022-10-19T05:14:45.951Z,13.3
2022-10-19T05:24:45.916Z,13.3
2022-10-19T05:29:45.889Z,13.3
2022-10-19T05:34:45.868Z,13.3
2022-10-19T05:39:45.855Z,13.3
2022-10-19T05:44:45.953Z,13.3
2022-10-19T05:49:45.829Z,13.3
2022-10-19T05:54:45.793Z,13.4
2022-10-19T05:59:45.791Z,13.4
2022-10-19T06:04:45.756Z,13.4
2022-10-19T06:09:45.728Z,13.5
2022-10-19T06:14:45.773Z,13.5
2022-10-19T06:19:45.692Z,13.6
2022-10-19T06:24:45.675Z,13.5
2022-10-19T06:29:45.646Z,13.5
2022-10-19T06:34:45.626Z,13.6
2022-10-19T06:39:45.604Z,13.6
2022-10-19T06:44:45.918Z,13.6
2022-10-19T06:49:45.678Z,13.6
2022-10-19T06:54:45.582Z,13.7
2022-10-19T06:59:45.926Z,13.7
2022-10-19T07:04:45.649Z,13.6
2022-10-19T07:09:45.635Z,13.6
2022-10-19T07:14:45.497Z,13.7
2022-10-19T07:19:45.442Z,13.8
2022-10-19T07:24:45.431Z,13.9
2022-10-19T07:29:45.406Z,13.9
2022-10-19T07:34:45.408Z,13.9
2022-10-19T07:39:45.371Z,14
2022-10-19T07:44:45.343Z,14.1
2022-10-19T07:49:45.325Z,14.2
2022-10-19T07:54:45.299Z,14.3
2022-10-19T07:59:45.398Z,14.2
2022-10-19T08:04:45.261Z,14.3
2022-10-19T08:09:45.244Z,14.3
2022-10-19T08:14:45.224Z,14.2
2022-10-19T08:19:45.192Z,14.3
2022-10-19T08:24:45.211Z,14.4
2022-10-19T08:29:45.267Z,14.4
2022-10-19T08:34:45.164Z,14.5
2022-10-19T08:39:45.111Z,14.6
2022-10-19T08:44:45.089Z,14.7
2022-10-19T08:49:45.173Z,14.7
2022-10-19T08:54:45.053Z,14.6
2022-10-19T08:59:45.037Z,14.8
2022-10-19T09:04:45.009Z,14.9
2022-10-19T09:09:44.992Z,14.9
2022-10-19T09:14:44.970Z,15
2022-10-19T09:19:44.946Z,15
2022-10-19T09:24:44.935Z,15
2022-10-19T09:29:44.916Z,14.9
2022-10-19T09:34:44.906Z,14.9
2022-10-19T09:39:44.867Z,15.1
2022-10-19T09:44:44.854Z,15
2022-10-19T09:49:44.825Z,15.1
2022-10-19T09:54:44.798Z,15.2
2022-10-19T09:59:44.785Z,15.2
2022-10-19T10:04:44.768Z,15.3
2022-10-19T10:09:44.743Z,15.3
2022-10-19T10:14:44.719Z,15.4
2022-10-19T10:19:44.700Z,15.5
2022-10-19T10:24:44.677Z,15.5
2022-10-19T10:29:44.654Z,15.4
2022-10-19T10:34:44.630Z,15.6
2022-10-19T10:39:44.626Z,15.5
2022-10-19T10:44:44.594Z,15.6
2022-10-19T10:49:44.578Z,15.6
2022-10-19T10:54:44.554Z,15.7
2022-10-19T10:59:44.530Z,15.7
2022-10-19T11:04:44.617Z,16
2022-10-19T11:09:44.520Z,16
2022-10-19T11:14:44.473Z,16
2022-10-19T11:19:44.529Z,16.1
2022-10-19T11:24:44.426Z,16.3
2022-10-19T11:29:44.541Z,16.4
2022-10-19T11:34:44.389Z,16.6
2022-10-19T11:39:44.362Z,16.8
2022-10-19T11:44:44.354Z,17.1
2022-10-19T11:49:44.319Z,17.5
2022-10-19T11:54:44.300Z,18
2022-10-19T11:59:44.284Z,18
2022-10-19T12:04:44.259Z,18.3
2022-10-19T12:09:44.243Z,19.1
2022-10-19T12:14:44.213Z,19.9
2022-10-19T12:19:44.197Z,21.1
2022-10-19T12:29:44.166Z,22
2022-10-19T12:34:44.192Z,21.7
2022-10-19T12:39:44.104Z,21.2
2022-10-19T12:44:44.082Z,20.8
2022-10-19T12:49:44.068Z,20.6
2022-10-19T12:54:44.086Z,20.5
2022-10-19T12:59:44.032Z,20.4
2022-10-19T13:04:44.108Z,20.3
2022-10-19T13:09:44.112Z,20.2
2022-10-19T13:14:43.958Z,20.1
2022-10-19T13:19:44.025Z,20
2022-10-19T13:24:43.917Z,20
2022-10-19T13:29:43.923Z,19.9
2022-10-19T13:34:43.894Z,19.8
2022-10-19T13:39:43.855Z,19.9
2022-10-19T13:44:43.835Z,19.8
2022-10-19T13:49:43.810Z,19.8
2022-10-19T13:54:43.786Z,19.8
2022-10-19T13:59:43.780Z,19.7
2022-10-19T14:04:43.754Z,19.7
2022-10-19T14:09:43.726Z,19.8
2022-10-19T14:14:43.705Z,19.8
2022-10-19T14:19:43.678Z,19.8
2022-10-19T14:24:43.661Z,19.8
2022-10-19T14:34:43.612Z,19.7
2022-10-19T14:44:43.595Z,19.5
2022-10-19T14:54:50.546Z,19.4
2022-10-19T15:09:43.526Z,19.2
2022-10-19T15:24:43.469Z,19
2022-10-19T15:29:50.397Z,18.9
2022-10-19T15:39:50.394Z,18.8
2022-10-19T15:49:43.312Z,18.6
2022-10-19T16:04:43.378Z,18.3
2022-10-19T16:14:50.282Z,18.1
2022-10-19T16:19:43.238Z,18
2022-10-19T16:34:43.146Z,17.7
2022-10-19T16:39:43.092Z,17.7
2022-10-19T16:44:43.070Z,17.5
2022-10-19T16:49:43.057Z,17.4
2022-10-19T16:54:43.038Z,17.1
2022-10-19T16:59:43.005Z,17
2022-10-19T17:04:43.026Z,16.8
2022-10-19T17:09:42.968Z,16.5
2022-10-19T17:14:42.942Z,16.3
2022-10-19T17:19:42.923Z,16.1
2022-10-19T17:24:42.900Z,16
2022-10-19T17:29:42.888Z,15.9
2022-10-19T17:34:42.855Z,15.8
2022-10-19T17:39:42.834Z,15.7
2022-10-19T17:44:42.817Z,15.6
2022-10-19T17:49:42.794Z,15.5
2022-10-19T17:54:42.774Z,15.5
2022-10-19T17:59:42.756Z,15.5
2022-10-19T18:04:42.735Z,15.4
2022-10-19T18:09:42.710Z,15.3
2022-10-19T18:14:42.723Z,15.2
2022-10-19T18:19:42.671Z,15.1
2022-10-19T18:24:42.684Z,15
2022-10-19T18:29:42.630Z,14.9
2022-10-19T18:34:42.630Z,14.9
2022-10-19T18:39:42.626Z,14.8
2022-10-19T18:44:42.562Z,14.7
2022-10-19T18:49:42.545Z,14.7
2022-10-19T18:54:42.528Z,14.6
2022-10-19T18:59:42.502Z,14.6
2022-10-19T19:04:42.481Z,14.5
2022-10-19T19:09:42.519Z,14.5
2022-10-19T19:14:42.436Z,14.5
2022-10-19T19:19:42.419Z,14.5
2022-10-19T19:24:42.394Z,14.4
2022-10-19T19:29:42.376Z,14.4
2022-10-19T19:34:42.365Z,14.3
2022-10-19T19:39:42.338Z,14.3
2022-10-19T19:44:42.319Z,14.3
2022-10-19T19:49:42.297Z,14.2
2022-10-19T19:54:42.274Z,14.1
2022-10-19T19:59:42.255Z,14
2022-10-19T20:04:42.235Z,14
2022-10-19T20:09:42.216Z,14
2022-10-19T20:14:42.196Z,13.9
2022-10-19T20:19:42.197Z,13.8
2022-10-19T20:24:42.151Z,13.8
2022-10-19T20:29:42.134Z,13.7
2022-10-19T20:34:42.114Z,13.7
2022-10-19T20:39:42.121Z,13.7
2022-10-19T20:44:42.074Z,13.7
2022-10-19T20:49:42.046Z,13.7
2022-10-19T20:54:42.022Z,13.6
2022-10-19T20:59:42.011Z,13.6
2022-10-19T21:04:41.987Z,13.6
2022-10-19T21:09:41.971Z,13.5
2022-10-19T21:14:42.040Z,13.5
2022-10-19T21:19:41.926Z,13.4
2022-10-19T21:24:41.905Z,13.5
2022-10-19T21:29:41.908Z,13.4
2022-10-19T21:34:41.863Z,13.4
2022-10-19T21:39:41.847Z,13.3
2022-10-19T21:44:41.829Z,13.2
2022-10-19T21:49:41.812Z,13.1
2022-10-19T21:54:41.811Z,13
2022-10-19T21:59:41.771Z,13
2022-10-19T22:04:41.761Z,13
2022-10-19T22:09:41.725Z,13
2022-10-19T22:14:41.725Z,13
2022-10-19T22:19:41.685Z,12.9
2022-10-19T22:24:41.681Z,13
2022-10-19T22:29:41.640Z,13
2022-10-19T22:34:41.622Z,13
2022-10-19T22:39:41.601Z,13
2022-10-19T22:44:41.581Z,13
2022-10-19T22:49:41.572Z,13.1
2022-10-19T22:54:41.567Z,13.1
2022-10-19T22:59:41.522Z,13.1
2022-10-19T23:04:41.508Z,13.1
2022-10-19T23:09:41.474Z,13.1
2022-10-19T23:14:41.466Z,13.1
2022-10-19T23:19:41.451Z,13.1
2022-10-19T23:24:41.419Z,13.1
2022-10-19T23:29:41.416Z,13.2
2022-10-19T23:34:41.379Z,13.2
2022-10-19T23:39:41.353Z,13.1
2022-10-19T23:44:41.335Z,13.1
2022-10-19T23:49:41.336Z,13
2022-10-19T23:54:41.315Z,12.9
2022-10-19T23:59:41.274Z,12.9
